Time;durP1;ratioP1;P1;durP2;ratioP2;P2;SDS_P1;SDS_P2;PMS_P1;PMS_P2;Temp;Humidity;BMP_temperature;BMP_pressure;BME280_temperature;BME280_humidity;BME280_pressure;Samples;Min_cycle;Max_cycle;Signal;HPM_P1;HPM_P2
2021/11/18 00:01:50;;;;;;;;;;;;;;;13.67;58.29;102601.16;4172591;28;19923;-65
2021/11/18 00:03:54;;;;;;;;;;;;;;;13.66;58.29;102602.03;4183023;28;20200;-64
2021/11/18 00:05:56;;;;;;;;;;;;;;;13.65;58.43;102600.28;4174051;28;20288;-64
2021/11/18 00:07:58;;;;;;;;;;;;;;;13.65;58.15;102602.94;4172994;28;19924;-63
2021/11/18 00:10:00;;;;;;;;;;;;;;;13.64;58.45;102609.13;4188763;28;19920;-63
2021/11/18 00:12:03;;;;;;;;;;;;;;;13.63;58.44;102604.72;4188864;28;19963;-65
2021/11/18 00:14:05;;;;;;;;;;;;;;;13.63;58.50;102607.38;4188605;28;19916;-64
2021/11/18 00:16:07;;;;;;;;;;;;;;;13.62;58.30;102600.38;4188799;28;19921;-64
2021/11/18 00:18:11;;;;;;;;;;;;;;;13.62;58.32;102610.03;4188681;28;19916;-61
2021/11/18 00:20:15;;;;;;;;;;;;;;;13.62;58.13;102610.03;4188191;28;19916;-64
2021/11/18 00:22:17;;;;;;;;;;;;;;;13.62;58.58;102607.41;4188666;28;19924;-65
2021/11/18 00:24:21;;;;;;;;;;;;;;;13.60;58.48;102604.78;4188539;28;19982;-62
2021/11/18 00:26:24;;;;;;;;;;;;;;;13.60;58.41;102604.78;4188642;28;19916;-61
2021/11/18 00:28:26;;;;;;;;;;;;;;;13.59;58.46;102605.69;4188492;28;19931;-63
2021/11/18 00:30:28;;;;;;;;;;;;;;;13.59;58.46;102605.69;4188445;28;19916;-62
2021/11/18 00:32:30;;;;;;;;;;;;;;;13.59;58.51;102595.13;4188891;28;19917;-65
2021/11/18 00:34:32;;;;;;;;;;;;;;;13.57;58.52;102597.78;4188008;28;19916;-65
2021/11/18 00:36:34;;;;;;;;;;;;;;;13.57;58.24;102591.63;4188500;28;19924;-63
2021/11/18 00:38:36;;;;;;;;;;;;;;;13.57;58.40;102588.97;4188307;28;19916;-63
2021/11/18 00:40:40;;;;;;;;;;;;;;;13.56;58.49;102576.66;4188357;28;19961;-62
2021/11/18 00:42:42;;;;;;;;;;;;;;;13.55;58.45;102577.56;4188751;28;20104;-62
2021/11/18 00:44:44;;;;;;;;;;;;;;;13.55;58.23;102572.28;4188287;28;19920;-61
2021/11/18 00:46:46;;;;;;;;;;;;;;;13.54;58.22;102568.75;4188297;28;19917;-62
2021/11/18 00:48:48;;;;;;;;;;;;;;;13.53;58.54;102577.59;4188429;28;20197;-63
2021/11/18 00:50:55;;;;;;;;;;;;;;;13.53;58.38;102576.72;4188236;28;19924;-62
2021/11/18 00:53:07;;;;;;;;;;;;;;;13.52;58.26;102559.97;4188410;28;20109;-63
2021/11/18 00:55:10;;;;;;;;;;;;;;;13.51;58.27;102563.53;4187029;28;19984;-63
2021/11/18 00:57:12;;;;;;;;;;;;;;;13.51;58.58;102562.66;4188239;28;19917;-65
2021/11/18 00:59:13;;;;;;;;;;;;;;;13.51;58.36;102573.22;4188130;28;20205;-63
2021/11/18 01:01:16;;;;;;;;;;;;;;;13.50;58.51;102567.09;4188556;28;19920;-65
2021/11/18 01:03:20;;;;;;;;;;;;;;;13.49;58.33;102570.63;4188475;28;20235;-66
2021/11/18 01:05:25;;;;;;;;;;;;;;;13.48;58.56;102566.22;4187040;28;19968;-65
2021/11/18 01:07:27;;;;;;;;;;;;;;;13.48;58.52;102566.22;4188504;28;20117;-65
2021/11/18 01:09:29;;;;;;;;;;;;;;;13.48;58.41;102574.16;4188113;28;19954;-64
2021/11/18 01:11:32;;;;;;;;;;;;;;;13.47;58.48;102582.97;4188166;28;19983;-64
2021/11/18 01:13:34;;;;;;;;;;;;;;;13.47;58.50;102592.69;4188436;28;19916;-64
2021/11/18 01:15:38;;;;;;;;;;;;;;;13.46;58.31;102588.31;4188206;28;19917;-64
2021/11/18 01:17:40;;;;;;;;;;;;;;;13.46;58.23;102589.16;4188161;28;19970;-64
2021/11/18 01:19:43;;;;;;;;;;;;;;;13.46;58.25;102588.31;4188173;28;19916;-64
2021/11/18 01:21:46;;;;;;;;;;;;;;;13.45;58.40;102598.03;4187171;28;19916;-64
2021/11/18 01:23:49;;;;;;;;;;;;;;;13.46;58.44;102598.88;4188295;28;19939;-61
2021/11/18 01:25:51;;;;;;;;;;;;;;;13.45;58.47;102599.78;4187885;28;19928;-64
2021/11/18 01:27:56;;;;;;;;;;;;;;;13.44;58.10;102593.63;4188065;28;19987;-60
2021/11/18 01:29:58;;;;;;;;;;;;;;;13.44;58.10;102593.63;4188260;28;19920;-60
2021/11/18 01:32:00;;;;;;;;;;;;;;;13.43;58.20;102594.53;4188087;28;19917;-62
2021/11/18 01:34:03;;;;;;;;;;;;;;;13.42;58.17;102593.63;4174598;28;19917;-64
2021/11/18 01:36:05;;;;;;;;;;;;;;;13.42;58.34;102590.13;4182187;28;20105;-63
2021/11/18 01:38:07;;;;;;;;;;;;;;;13.41;58.32;102588.38;4191119;28;20203;-61
2021/11/18 01:40:10;;;;;;;;;;;;;;;13.41;58.21;102591.03;4191246;28;19920;-64
2021/11/18 01:42:12;;;;;;;;;;;;;;;13.40;58.38;102594.56;4191069;28;20152;-63
2021/11/18 01:44:26;;;;;;;;;;;;;;;13.40;58.08;102597.19;4191007;28;19916;-63
2021/11/18 01:46:34;;;;;;;;;;;;;;;13.39;58.46;102598.09;4197712;28;19916;-64
2021/11/18 01:48:37;;;;;;;;;;;;;;;13.39;58.17;102598.09;4183225;28;19938;-63
2021/11/18 01:50:41;;;;;;;;;;;;;;;13.38;58.42;102606.94;4190949;28;19928;-63
2021/11/18 01:52:45;;;;;;;;;;;;;;;13.37;58.39;102606.03;4191019;28;19964;-62
2021/11/18 01:54:47;;;;;;;;;;;;;;;13.36;58.18;102608.72;4190997;28;19916;-64
2021/11/18 01:56:50;;;;;;;;;;;;;;;13.37;58.30;102613.09;4191050;28;19917;-61
2021/11/18 01:58:54;;;;;;;;;;;;;;;13.36;58.40;102612.22;4190936;28;19970;-61
2021/11/18 02:00:57;;;;;;;;;;;;;;;13.36;58.45;102611.34;4190965;28;19924;-63
2021/11/18 02:03:00;;;;;;;;;;;;;;;13.35;58.34;102609.59;4190891;28;19940;-63
2021/11/18 02:05:20;;;;;;;;;;;;;;;13.34;58.33;102600.81;4190887;28;19916;-65
2021/11/18 02:07:22;;;;;;;;;;;;;;;13.33;58.22;102607.00;4190317;28;19921;-64
2021/11/18 02:09:26;;;;;;;;;;;;;;;13.33;58.39;102616.66;4190844;28;19916;-64
2021/11/18 02:11:30;;;;;;;;;;;;;;;13.32;58.14;102613.16;4190649;28;19962;-61
2021/11/18 02:13:32;;;;;;;;;;;;;;;13.32;58.25;102612.28;4190675;28;19925;-63
2021/11/18 02:15:34;;;;;;;;;;;;;;;13.31;58.45;102613.19;4190756;28;19920;-62
2021/11/18 02:17:36;;;;;;;;;;;;;;;13.31;58.37;102613.19;4190545;28;19920;-64
2021/11/18 02:19:40;;;;;;;;;;;;;;;13.30;58.37;102611.44;4190798;28;19920;-62
2021/11/18 02:21:47;;;;;;;;;;;;;;;13.30;58.35;102611.44;4190833;28;19917;-63
2021/11/18 02:23:54;;;;;;;;;;;;;;;13.30;58.31;102609.66;4189543;28;19923;-64
2021/11/18 02:25:56;;;;;;;;;;;;;;;13.29;58.40;102618.50;4190608;28;19917;-63
2021/11/18 02:27:58;;;;;;;;;;;;;;;13.29;58.19;102620.28;4190319;28;20090;-64
2021/11/18 02:30:00;;;;;;;;;;;;;;;13.27;58.16;102621.16;4190504;28;19963;-64
2021/11/18 02:32:05;;;;;;;;;;;;;;;13.27;57.94;102618.53;4190476;28;20201;-64
2021/11/18 02:34:09;;;;;;;;;;;;;;;13.26;58.32;102621.19;4181241;28;20201;-61
2021/11/18 02:36:12;;;;;;;;;;;;;;;13.25;57.96;102615.03;4173059;28;19963;-61
2021/11/18 02:38:15;;;;;;;;;;;;;;;13.26;58.31;102621.19;4189942;28;19924;-64
2021/11/18 02:40:17;;;;;;;;;;;;;;;13.25;58.26;102624.72;4190222;28;19954;-64
2021/11/18 02:42:19;;;;;;;;;;;;;;;13.23;58.19;102632.69;4190295;28;19917;-61
2021/11/18 02:44:21;;;;;;;;;;;;;;;13.22;58.31;102630.94;4189380;28;19924;-64
2021/11/18 02:46:23;;;;;;;;;;;;;;;13.23;58.28;102621.22;4189802;28;19954;-62
2021/11/18 02:48:26;;;;;;;;;;;;;;;13.22;58.33;102615.09;4189731;28;19916;-63
2021/11/18 02:50:30;;;;;;;;;;;;;;;13.22;58.33;102611.56;4190121;28;19970;-63
2021/11/18 02:52:34;;;;;;;;;;;;;;;13.21;58.12;102613.34;4190097;28;20177;-64
2021/11/18 02:54:36;;;;;;;;;;;;;;;13.21;58.06;102617.78;4190140;28;20104;-62
2021/11/18 02:56:38;;;;;;;;;;;;;;;13.20;58.11;102629.22;4190182;28;20243;-64
2021/11/18 02:58:40;;;;;;;;;;;;;;;13.20;58.02;102629.22;4190069;28;19917;-64
2021/11/18 03:00:48;;;;;;;;;;;;;;;13.20;58.09;102637.16;4189973;28;19923;-62
2021/11/18 03:02:50;;;;;;;;;;;;;;;13.19;58.32;102635.41;4190257;28;19963;-64
2021/11/18 03:04:52;;;;;;;;;;;;;;;13.19;58.09;102638.03;4188588;28;19954;-64
2021/11/18 03:06:54;;;;;;;;;;;;;;;13.18;58.08;102634.50;4190104;28;19924;-63
2021/11/18 03:08:57;;;;;;;;;;;;;;;13.18;58.00;102633.66;4189940;28;19917;-64
2021/11/18 03:10:59;;;;;;;;;;;;;;;13.16;58.12;102636.31;4179141;28;19939;-61
2021/11/18 03:13:01;;;;;;;;;;;;;;;13.18;58.04;102646.88;4189827;28;19958;-62
2021/11/18 03:15:04;;;;;;;;;;;;;;;13.15;58.28;102645.16;4189457;28;20030;-64
2021/11/18 03:17:06;;;;;;;;;;;;;;;13.14;58.33;102638.13;4189771;28;19916;-64
2021/11/18 03:19:08;;;;;;;;;;;;;;;13.14;58.27;102642.53;4189533;28;19916;-64
2021/11/18 03:21:12;;;;;;;;;;;;;;;13.13;58.15;102633.72;4189694;28;19917;-62
2021/11/18 03:23:14;;;;;;;;;;;;;;;13.13;58.00;102633.72;4189788;28;19917;-60
2021/11/18 03:25:18;;;;;;;;;;;;;;;13.12;58.22;102646.97;4172034;28;19923;-60
2021/11/18 03:27:20;;;;;;;;;;;;;;;13.12;57.93;102645.19;4189848;28;20361;-62
2021/11/18 03:29:22;;;;;;;;;;;;;;;13.10;58.28;102642.56;4189478;28;19924;-63
2021/11/18 03:31:24;;;;;;;;;;;;;;;13.11;58.16;102643.47;4189749;28;19929;-60
2021/11/18 03:33:29;;;;;;;;;;;;;;;13.10;58.08;102647.00;4189490;28;19916;-64
2021/11/18 03:35:31;;;;;;;;;;;;;;;13.09;58.02;102650.53;4189166;28;19962;-64
2021/11/18 03:37:33;;;;;;;;;;;;;;;13.09;58.11;102639.97;4189510;28;19962;-64
2021/11/18 03:39:37;;;;;;;;;;;;;;;13.08;58.05;102647.00;4189341;28;20101;-64
2021/11/18 03:41:41;;;;;;;;;;;;;;;13.08;58.14;102640.84;4189580;28;20219;-61
2021/11/18 03:43:46;;;;;;;;;;;;;;;13.07;58.13;102631.19;4189666;28;20189;-64
2021/11/18 03:45:49;;;;;;;;;;;;;;;13.06;57.95;102635.59;4189772;28;20216;-61
2021/11/18 03:47:51;;;;;;;;;;;;;;;13.05;58.14;102633.84;4189473;28;20284;-64
2021/11/18 03:49:53;;;;;;;;;;;;;;;13.06;57.98;102640.00;4189159;28;19939;-64
2021/11/18 03:51:56;;;;;;;;;;;;;;;13.05;58.21;102644.41;4185826;28;19920;-63
2021/11/18 03:54:02;;;;;;;;;;;;;;;13.05;58.18;102654.09;4189174;28;20148;-64
2021/11/18 03:56:06;;;;;;;;;;;;;;;13.04;58.12;102655.88;4188224;28;19971;-63
2021/11/18 03:58:08;;;;;;;;;;;;;;;13.04;58.01;102655.00;4187932;28;20015;-60
2021/11/18 04:00:19;;;;;;;;;;;;;;;13.03;57.95;102654.13;4189027;28;20205;-61
2021/11/18 04:02:21;;;;;;;;;;;;;;;13.02;58.17;102660.28;4189220;28;19917;-60
2021/11/18 04:04:29;;;;;;;;;;;;;;;13.02;57.92;102655.00;4189050;28;19923;-63
2021/11/18 04:06:31;;;;;;;;;;;;;;;13.02;58.04;102654.16;4188895;28;19917;-64
2021/11/18 04:08:33;;;;;;;;;;;;;;;13.00;57.97;102656.81;4189281;28;19923;-64
2021/11/18 04:10:36;;;;;;;;;;;;;;;13.00;58.09;102659.47;4189199;28;20085;-63
2021/11/18 04:12:39;;;;;;;;;;;;;;;12.99;57.81;102660.34;4188878;28;19954;-62
2021/11/18 04:14:41;;;;;;;;;;;;;;;13.00;58.06;102663.84;4189007;28;20128;-64
2021/11/18 04:16:44;;;;;;;;;;;;;;;12.99;58.09;102670.91;4188833;28;20108;-63
2021/11/18 04:18:49;;;;;;;;;;;;;;;12.99;58.02;102675.31;4189008;28;20289;-63
2021/11/18 04:20:59;;;;;;;;;;;;;;;12.97;58.07;102667.41;4188886;28;20135;-60
2021/11/18 04:23:03;;;;;;;;;;;;;;;12.98;58.00;102676.19;4188936;28;19916;-64
2021/11/18 04:25:07;;;;;;;;;;;;;;;12.97;57.70;102680.63;4189083;28;19970;-62
2021/11/18 04:27:09;;;;;;;;;;;;;;;12.96;58.00;102678.88;4188531;28;20206;-60
2021/11/18 04:29:13;;;;;;;;;;;;;;;12.97;57.89;102671.84;4188973;28;19916;-62
2021/11/18 04:31:16;;;;;;;;;;;;;;;12.96;57.83;102680.66;4187729;28;19916;-60
2021/11/18 04:33:19;;;;;;;;;;;;;;;12.94;57.88;102678.91;4177543;28;19917;-62
2021/11/18 04:35:23;;;;;;;;;;;;;;;12.94;58.01;102685.94;4188852;28;19918;-64
2021/11/18 04:37:25;;;;;;;;;;;;;;;12.93;57.94;102679.78;4188028;28;19917;-61
2021/11/18 04:39:27;;;;;;;;;;;;;;;12.93;57.88;102685.06;4188542;28;20212;-62
2021/11/18 04:41:29;;;;;;;;;;;;;;;12.91;57.87;102689.50;4188489;28;19990;-61
2021/11/18 04:43:31;;;;;;;;;;;;;;;12.91;57.71;102689.50;4188485;28;19916;-60
2021/11/18 04:45:33;;;;;;;;;;;;;;;12.90;57.91;102695.69;4198096;28;19916;-63
2021/11/18 04:47:36;;;;;;;;;;;;;;;12.91;57.96;102696.56;4196150;28;19955;-63
2021/11/18 04:49:44;;;;;;;;;;;;;;;12.90;58.04;102692.16;4188856;28;20132;-62
2021/11/18 04:51:46;;;;;;;;;;;;;;;12.90;58.03;102705.38;4188668;28;20281;-64
2021/11/18 04:53:48;;;;;;;;;;;;;;;12.89;58.08;102703.63;4188780;28;19932;-62
2021/11/18 04:55:50;;;;;;;;;;;;;;;12.88;57.99;102702.75;4188520;28;19990;-62
2021/11/18 04:57:53;;;;;;;;;;;;;;;12.88;58.06;102713.31;4188462;28;19916;-61
2021/11/18 04:59:55;;;;;;;;;;;;;;;12.88;58.03;102708.03;4188670;28;19917;-65
2021/11/18 05:01:58;;;;;;;;;;;;;;;12.87;57.85;102714.22;4188713;28;19944;-64
2021/11/18 05:04:07;;;;;;;;;;;;;;;12.87;57.90;102708.94;4188361;28;20147;-63
2021/11/18 05:06:10;;;;;;;;;;;;;;;12.86;57.70;102715.09;4188753;28;20147;-63
2021/11/18 05:08:12;;;;;;;;;;;;;;;12.86;58.05;102712.47;4191754;28;19916;-61
2021/11/18 05:10:15;;;;;;;;;;;;;;;12.85;57.73;102709.84;4191966;28;19939;-64
2021/11/18 05:12:17;;;;;;;;;;;;;;;12.84;57.72;102702.81;4191972;28;20220;-61
2021/11/18 05:14:20;;;;;;;;;;;;;;;12.84;57.80;102710.75;4191651;28;19916;-64
2021/11/18 05:16:22;;;;;;;;;;;;;;;12.84;57.75;102708.09;4191615;28;19923;-65
2021/11/18 05:18:26;;;;;;;;;;;;;;;12.83;57.71;102704.59;4191460;28;19921;-61
2021/11/18 05:20:28;;;;;;;;;;;;;;;12.83;57.82;102711.63;4191640;28;19921;-64
2021/11/18 05:22:30;;;;;;;;;;;;;;;12.83;57.73;102711.63;4191641;28;20128;-64
2021/11/18 05:24:32;;;;;;;;;;;;;;;12.81;57.74;102706.38;4190983;28;19917;-61
2021/11/18 05:26:34;;;;;;;;;;;;;;;12.82;57.67;102710.75;4191363;28;19917;-63
2021/11/18 05:28:36;;;;;;;;;;;;;;;12.81;57.47;102709.00;4191473;28;19924;-64
2021/11/18 05:30:38;;;;;;;;;;;;;;;12.80;57.87;102709.91;4191487;28;19920;-61
2021/11/18 05:32:40;;;;;;;;;;;;;;;12.78;58.05;102704.66;4191668;28;19916;-63
2021/11/18 05:34:42;;;;;;;;;;;;;;;12.79;57.56;102705.50;4190354;28;19917;-62
2021/11/18 05:36:44;;;;;;;;;;;;;;;12.80;57.78;102709.03;4191567;28;19939;-64
2021/11/18 05:38:46;;;;;;;;;;;;;;;12.78;57.89;102712.56;4191018;28;19921;-64
2021/11/18 05:40:49;;;;;;;;;;;;;;;12.78;57.87;102720.50;4191256;28;19954;-64
2021/11/18 05:42:52;;;;;;;;;;;;;;;12.78;57.84;102720.50;4191313;28;19917;-61
2021/11/18 05:44:54;;;;;;;;;;;;;;;12.77;57.89;102717.84;4195153;28;19916;-64
2021/11/18 05:46:56;;;;;;;;;;;;;;;12.77;57.84;102720.50;4195678;28;19920;-62
2021/11/18 05:48:58;;;;;;;;;;;;;;;12.75;57.65;102714.38;4190772;28;20236;-62
2021/11/18 05:51:00;;;;;;;;;;;;;;;12.76;57.60;102721.41;4191065;28;19925;-61
2021/11/18 05:53:03;;;;;;;;;;;;;;;12.75;57.73;102725.78;4191208;28;19917;-63
2021/11/18 05:55:06;;;;;;;;;;;;;;;12.75;57.61;102719.66;4190986;28;20144;-62
2021/11/18 05:57:08;;;;;;;;;;;;;;;12.74;57.61;102720.53;4191290;28;19924;-63
2021/11/18 05:59:11;;;;;;;;;;;;;;;12.73;57.86;102722.28;4190957;28;19939;-64
2021/11/18 06:01:14;;;;;;;;;;;;;;;12.73;57.69;102724.94;4187519;28;19974;-63
2021/11/18 06:03:16;;;;;;;;;;;;;;;12.72;57.68;102735.53;4191287;28;19916;-63
2021/11/18 06:05:18;;;;;;;;;;;;;;;12.73;57.80;102739.91;4191114;28;19962;-64
2021/11/18 06:07:20;;;;;;;;;;;;;;;12.72;57.80;102741.69;4190927;28;19925;-62
2021/11/18 06:09:22;;;;;;;;;;;;;;;12.71;57.98;102741.69;4191078;28;20280;-64
2021/11/18 06:11:24;;;;;;;;;;;;;;;12.71;57.75;102736.41;4189858;28;19924;-64
2021/11/18 06:13:26;;;;;;;;;;;;;;;12.70;57.63;102743.47;4190945;28;20143;-63
2021/11/18 06:15:29;;;;;;;;;;;;;;;12.70;57.56;102737.31;4190675;28;19916;-61
2021/11/18 06:17:30;;;;;;;;;;;;;;;12.68;57.73;102737.31;4190918;28;20205;-60
2021/11/18 06:19:34;;;;;;;;;;;;;;;12.69;57.94;102743.50;4189990;28;19974;-64
2021/11/18 06:21:39;;;;;;;;;;;;;;;12.69;57.73;102738.22;4190524;28;20242;-62
2021/11/18 06:23:41;;;;;;;;;;;;;;;12.68;57.50;102742.59;4174463;28;19931;-61
2021/11/18 06:25:43;;;;;;;;;;;;;;;12.68;57.85;102747.03;4181173;28;20090;-61
2021/11/18 06:27:46;;;;;;;;;;;;;;;12.69;57.50;102748.78;4190828;28;19916;-60
2021/11/18 06:29:49;;;;;;;;;;;;;;;12.67;57.50;102746.13;4190655;28;19939;-61
2021/11/18 06:31:53;;;;;;;;;;;;;;;12.67;57.75;102747.91;4190542;28;19924;-61
2021/11/18 06:33:57;;;;;;;;;;;;;;;12.66;57.57;102743.53;4190269;28;19925;-64
2021/11/18 06:35:59;;;;;;;;;;;;;;;12.66;57.51;102751.44;4190196;28;19917;-64
2021/11/18 06:38:08;;;;;;;;;;;;;;;12.65;57.61;102752.31;4190416;28;19978;-63
2021/11/18 06:40:13;;;;;;;;;;;;;;;12.63;57.49;102752.34;4190438;28;19916;-64
2021/11/18 06:42:15;;;;;;;;;;;;;;;12.64;57.60;102764.66;4190150;28;19917;-64
2021/11/18 06:44:17;;;;;;;;;;;;;;;12.63;57.51;102760.28;4190274;28;19916;-64
2021/11/18 06:46:19;;;;;;;;;;;;;;;12.63;57.55;102760.28;4199212;28;19924;-61
2021/11/18 06:48:22;;;;;;;;;;;;;;;12.62;57.67;102750.59;4190486;28;19916;-63
2021/11/18 06:50:24;;;;;;;;;;;;;;;12.62;57.52;102755.88;4190246;28;19916;-64
2021/11/18 06:52:26;;;;;;;;;;;;;;;12.61;57.74;102757.66;4188922;28;19970;-61
2021/11/18 06:54:29;;;;;;;;;;;;;;;12.61;57.57;102759.41;4190116;28;19916;-61
2021/11/18 06:56:33;;;;;;;;;;;;;;;12.60;57.69;102761.19;4190131;28;19916;-63
2021/11/18 06:58:35;;;;;;;;;;;;;;;12.61;57.77;102759.41;4189944;28;19916;-61
2021/11/18 07:00:37;;;;;;;;;;;;;;;12.60;57.72;102774.38;4190178;28;19917;-61
2021/11/18 07:02:39;;;;;;;;;;;;;;;12.59;57.70;102767.34;4189967;28;19947;-64
2021/11/18 07:04:43;;;;;;;;;;;;;;;12.59;57.41;102767.34;4190272;28;19927;-60
2021/11/18 07:06:45;;;;;;;;;;;;;;;12.58;57.48;102770.88;4189590;28;20205;-60
2021/11/18 07:08:47;;;;;;;;;;;;;;;12.58;57.45;102772.66;4189951;28;19917;-62
2021/11/18 07:10:49;;;;;;;;;;;;;;;12.57;57.38;102771.75;4189921;28;19917;-62
2021/11/18 07:12:54;;;;;;;;;;;;;;;12.58;57.29;102775.28;4189788;28;19983;-63
2021/11/18 07:14:56;;;;;;;;;;;;;;;12.57;57.41;102776.19;4189735;28;19916;-63
2021/11/18 07:16:59;;;;;;;;;;;;;;;12.57;57.28;102776.19;4189541;28;19992;-61
2021/11/18 07:19:05;;;;;;;;;;;;;;;12.57;57.46;102778.81;4189568;28;20108;-61
2021/11/18 07:21:08;;;;;;;;;;;;;;;12.54;57.45;102769.19;4189344;28;19917;-63
2021/11/18 07:23:11;;;;;;;;;;;;;;;12.55;57.73;102768.28;4189398;28;19947;-62
2021/11/18 07:25:15;;;;;;;;;;;;;;;12.55;57.39;102767.38;4189558;28;20147;-63
2021/11/18 07:27:17;;;;;;;;;;;;;;;12.54;57.49;102771.81;4189210;28;19917;-63
2021/11/18 07:29:19;;;;;;;;;;;;;;;12.54;57.47;102768.28;4189729;28;20197;-62
2021/11/18 07:31:21;;;;;;;;;;;;;;;12.54;57.23;102766.53;4189673;28;19970;-61
2021/11/18 07:33:24;;;;;;;;;;;;;;;12.53;57.45;102767.41;4188980;28;19917;-60
2021/11/18 07:35:26;;;;;;;;;;;;;;;12.53;57.57;102762.13;4189249;28;19917;-63
2021/11/18 07:37:28;;;;;;;;;;;;;;;12.53;57.45;102769.19;4189020;28;19916;-60
2021/11/18 07:39:30;;;;;;;;;;;;;;;12.53;57.57;102769.19;4189201;28;19925;-62
2021/11/18 07:41:32;;;;;;;;;;;;;;;12.53;57.52;102763.91;4189264;28;19921;-60
2021/11/18 07:43:36;;;;;;;;;;;;;;;12.51;57.54;102769.19;4189262;28;19920;-62
2021/11/18 07:46:00;;;;;;;;;;;;;;;12.52;57.40;102770.09;4188204;28;19924;-63
2021/11/18 07:48:02;;;;;;;;;;;;;;;12.51;57.48;102766.56;4187847;28;20242;-60
2021/11/18 07:50:06;;;;;;;;;;;;;;;12.52;57.34;102767.44;4189139;28;19923;-60
2021/11/18 07:52:08;;;;;;;;;;;;;;;12.51;57.56;102769.19;4189415;28;19970;-63
2021/11/18 07:54:11;;;;;;;;;;;;;;;12.50;57.35;102767.44;4188873;28;19923;-63
2021/11/18 07:56:15;;;;;;;;;;;;;;;12.49;57.71;102768.34;4188904;28;19916;-60
2021/11/18 07:58:17;;;;;;;;;;;;;;;12.50;57.59;102769.22;4188924;28;20294;-63
2021/11/18 08:00:20;;;;;;;;;;;;;;;12.51;57.46;102770.97;4188814;28;20097;-60
2021/11/18 08:02:27;;;;;;;;;;;;;;;12.50;57.50;102777.13;4188831;28;19917;-60
2021/11/18 08:04:29;;;;;;;;;;;;;;;12.50;57.45;102782.41;4188630;28;19925;-63
2021/11/18 08:06:31;;;;;;;;;;;;;;;12.50;57.35;102785.06;4188917;28;19921;-60
2021/11/18 08:08:33;;;;;;;;;;;;;;;12.49;57.39;102789.47;4188853;28;19944;-60
2021/11/18 08:10:36;;;;;;;;;;;;;;;12.49;57.44;102791.22;4188974;28;19924;-64
2021/11/18 08:12:38;;;;;;;;;;;;;;;12.49;57.48;102786.84;4188788;28;19917;-61
2021/11/18 08:14:40;;;;;;;;;;;;;;;12.49;57.31;102791.22;4188372;28;19920;-63
2021/11/18 08:16:42;;;;;;;;;;;;;;;12.49;57.48;102783.28;4188807;28;19924;-63
2021/11/18 08:18:44;;;;;;;;;;;;;;;12.49;57.50;102786.84;4188518;28;19920;-63
2021/11/18 08:20:46;;;;;;;;;;;;;;;12.36;57.53;102764.06;4188551;28;19917;-61
2021/11/18 08:22:48;;;;;;;;;;;;;;;12.49;57.34;102786.84;4188554;28;20204;-60
2021/11/18 08:24:50;;;;;;;;;;;;;;;12.49;57.41;102786.84;4188403;28;19917;-63
2021/11/18 08:26:52;;;;;;;;;;;;;;;12.49;57.52;102786.84;4188539;28;19917;-61
2021/11/18 08:28:55;;;;;;;;;;;;;;;12.48;57.44;102793.00;4188514;28;19917;-59
2021/11/18 08:30:57;;;;;;;;;;;;;;;12.47;57.39;102780.69;4188332;28;19917;-63
2021/11/18 08:33:00;;;;;;;;;;;;;;;12.48;57.30;102789.47;4188462;28;19963;-63
2021/11/18 08:35:03;;;;;;;;;;;;;;;12.46;57.26;102785.06;4188282;28;19916;-64
2021/11/18 08:37:06;;;;;;;;;;;;;;;12.46;57.53;102787.72;4188312;28;19917;-64
2021/11/18 08:39:08;;;;;;;;;;;;;;;12.46;57.26;102792.13;4188496;28;19967;-64
2021/11/18 08:41:11;;;;;;;;;;;;;;;12.48;57.49;102800.03;4187646;28;20269;-63
2021/11/18 08:43:14;;;;;;;;;;;;;;;12.47;57.55;102799.16;4187140;28;20112;-59
2021/11/18 08:45:16;;;;;;;;;;;;;;;12.47;57.57;102801.78;4187555;28;19916;-65
2021/11/18 08:47:18;;;;;;;;;;;;;;;12.48;57.41;102802.66;4186723;28;19948;-63
2021/11/18 08:49:20;;;;;;;;;;;;;;;12.48;57.46;102798.28;4182504;28;19928;-63
2021/11/18 08:51:22;;;;;;;;;;;;;;;12.50;57.34;102806.16;4187907;28;19917;-64
2021/11/18 08:53:26;;;;;;;;;;;;;;;12.49;57.09;102802.66;4188396;28;19917;-65
2021/11/18 08:55:31;;;;;;;;;;;;;;;12.36;57.35;102785.19;4188227;28;19917;-62
2021/11/18 08:57:33;;;;;;;;;;;;;;;12.49;57.38;102807.94;4177567;28;19970;-60
2021/11/18 08:59:35;;;;;;;;;;;;;;;12.51;57.25;102811.41;4188425;28;19954;-64
2021/11/18 09:01:39;;;;;;;;;;;;;;;12.50;57.40;102806.16;4188255;28;19917;-64
2021/11/18 09:03:42;;;;;;;;;;;;;;;12.50;57.58;102812.31;4188284;28;19918;-62
2021/11/18 09:05:44;;;;;;;;;;;;;;;12.50;58.14;102809.66;4188195;28;19924;-64
2021/11/18 09:07:46;;;;;;;;;;;;;;;12.52;58.31;102807.91;4188271;28;19971;-64
2021/11/18 09:09:48;;;;;;;;;;;;;;;12.52;58.88;102802.63;4187143;28;20137;-61
2021/11/18 09:11:53;;;;;;;;;;;;;;;12.54;58.99;102814.03;4187460;28;20193;-63
2021/11/18 09:13:55;;;;;;;;;;;;;;;12.55;59.46;102817.53;4183367;28;20197;-61
2021/11/18 09:15:57;;;;;;;;;;;;;;;12.55;59.01;102814.91;4185222;28;19917;-59
2021/11/18 09:18:00;;;;;;;;;;;;;;;12.56;59.09;102814.03;4184489;28;20015;-60
2021/11/18 09:20:03;;;;;;;;;;;;;;;12.56;58.84;102821.94;4183117;28;20351;-61
2021/11/18 09:22:07;;;;;;;;;;;;;;;12.57;58.81;102813.13;4186578;28;19916;-65
2021/11/18 09:24:11;;;;;;;;;;;;;;;12.58;58.32;102818.38;4187168;28;20221;-65
2021/11/18 09:26:17;;;;;;;;;;;;;;;12.58;58.14;102814.88;4187634;28;19940;-65
2021/11/18 09:28:21;;;;;;;;;;;;;;;12.58;58.47;102820.16;4184797;28;20012;-66
2021/11/18 09:30:28;;;;;;;;;;;;;;;12.61;59.70;102820.13;4181036;28;19928;-64
2021/11/18 09:32:34;;;;;;;;;;;;;;;12.63;59.43;102821.00;4192231;28;20217;-66
2021/11/18 09:34:39;;;;;;;;;;;;;;;12.66;59.80;102828.00;4199302;28;19923;-59
2021/11/18 09:36:42;;;;;;;;;;;;;;;12.68;58.96;102832.38;4195833;28;19924;-60
2021/11/18 09:38:46;;;;;;;;;;;;;;;12.70;58.56;102827.94;4193606;28;19920;-61
2021/11/18 09:40:52;;;;;;;;;;;;;;;12.69;58.61;102826.19;4182110;28;19944;-61
2021/11/18 09:43:02;;;;;;;;;;;;;;;12.68;58.08;102824.44;4189481;28;19920;-62
2021/11/18 09:45:16;;;;;;;;;;;;;;;12.67;58.15;102821.81;4185994;28;19954;-62
2021/11/18 09:47:19;;;;;;;;;;;;;;;12.67;58.40;102820.06;4186244;28;20166;-61
2021/11/18 09:49:24;;;;;;;;;;;;;;;12.68;58.12;102819.16;4192971;28;19924;-61
2021/11/18 09:51:48;;;;;;;;;;;;;;;12.68;58.05;102819.16;4186316;28;19924;-62
2021/11/18 09:54:19;;;;;;;;;;;;;;;12.69;58.10;102830.63;4184410;28;19917;-61
2021/11/18 09:56:34;;;;;;;;;;;;;;;12.66;58.51;102828.88;4179322;28;19931;-60
2021/11/18 09:58:56;;;;;;;;;;;;;;;12.67;58.95;102830.59;4189945;28;19916;-59
2021/11/18 10:01:17;;;;;;;;;;;;;;;12.70;58.65;102825.31;4190540;28;19917;-61
2021/11/18 10:03:33;;;;;;;;;;;;;;;12.76;58.96;102834.94;4189596;28;19956;-61
2021/11/18 10:05:35;;;;;;;;;;;;;;;12.79;58.70;102832.25;4190525;28;19924;-62
2021/11/18 10:07:37;;;;;;;;;;;;;;;12.81;58.54;102833.13;4194283;28;20013;-61
2021/11/18 10:09:46;;;;;;;;;;;;;;;12.83;58.64;102839.28;4189484;28;19916;-62
2021/11/18 10:12:11;;;;;;;;;;;;;;;12.86;58.80;102838.34;4189467;28;20217;-62
2021/11/18 10:14:21;;;;;;;;;;;;;;;12.87;58.66;102848.03;4183877;28;19925;-63
2021/11/18 10:16:25;;;;;;;;;;;;;;;12.88;58.34;102852.41;4190039;28;20039;-62
2021/11/18 10:18:32;;;;;;;;;;;;;;;12.88;58.25;102855.94;4189007;28;19923;-63
2021/11/18 10:20:37;;;;;;;;;;;;;;;12.91;58.42;102857.66;4190015;28;19936;-63
2021/11/18 10:22:41;;;;;;;;;;;;;;;12.91;58.50;102849.75;4190040;28;19917;-66
2021/11/18 10:24:45;;;;;;;;;;;;;;;12.93;58.44;102848.81;4189086;28;20240;-63
2021/11/18 10:26:51;;;;;;;;;;;;;;;12.96;58.14;102852.34;4173554;28;19924;-64
2021/11/18 10:29:00;;;;;;;;;;;;;;;12.97;58.19;102859.38;4180124;28;19943;-70
2021/11/18 10:31:14;;;;;;;;;;;;;;;12.98;58.04;102861.09;4194128;28;19916;-69
2021/11/18 10:33:19;;;;;;;;;;;;;;;13.00;58.56;102861.97;4204109;28;19987;-65
2021/11/18 10:35:30;;;;;;;;;;;;;;;13.01;57.86;102863.72;4186952;28;19956;-68